UAL198 KLAX-ZSPD
Flight info
| Callsign | UAL198 |
|---|---|
| Flight time | N/A |
| Altitude | 34000 |
| Route | SUMMR2 MCKEY DCT CYPRS DCT PAINT DCT DACEM DCT 40N130W 43N140W 46N150W/N0500F360 48N160W 50N170W 52N180E 50N170E/N0490F380 47N165E 45N160E 42N155E DCT KALNA OTR5 ADNAP/N0485F400 Y807 LALID Y804 INUBO Y60 ISAKY Y592 ONIKU A593 LAMEN/K0902F280 A593 AKARA/K0896S0840 A593 PUD |
| Aircraft | B789/H-SDE1E2E3FGHIJ2J3J4J5M1RWXY/LB1D1 |
Departure
| Time | 2026-05-07 22:31 |
|---|---|
| Airport | Los Angeles International Airport (KLAX) |
Arrival
| Time | N/A |
|---|---|
| Airport | Shanghai Pudong International Airport (ZSPD) |
| Time | Latitude | Longitude | Altitude | Speed | Heading |
|---|---|---|---|---|---|
| 2026-05-07 21:57 | 33.94007 | -118.40123 | 102 ft | 0 kts | 308° |
| 2026-05-07 22:19 | 33.93992 | -118.40105 | 112 ft | 4 kts | 338° |
| 2026-05-07 22:19 | 33.93979 | -118.40097 | 105 ft | 1 kts | 308° |
| 2026-05-07 22:19 | 33.93976 | -118.40093 | 106 ft | 4 kts | 264° |
| 2026-05-07 22:20 | 33.93965 | -118.40102 | 103 ft | 4 kts | 208° |
| 2026-05-07 22:20 | 33.93940 | -118.40108 | 104 ft | 4 kts | 187° |
| 2026-05-07 22:20 | 33.93943 | -118.40105 | 103 ft | 4 kts | 224° |
| 2026-05-07 22:20 | 33.93943 | -118.40148 | 103 ft | 1 kts | 82° |
| 2026-05-07 22:23 | 33.93945 | -118.40126 | 104 ft | 6 kts | 81° |
| 2026-05-07 22:23 | 33.93943 | -118.40062 | 103 ft | 7 kts | 125° |
| 2026-05-07 22:24 | 33.93912 | -118.40048 | 106 ft | 5 kts | 164° |
| 2026-05-07 22:24 | 33.93889 | -118.40026 | 108 ft | 3 kts | 114° |
| 2026-05-07 22:24 | 33.93883 | -118.39987 | 109 ft | 7 kts | 92° |
| 2026-05-07 22:24 | 33.93888 | -118.39905 | 109 ft | 13 kts | 86° |
| 2026-05-07 22:25 | 33.93896 | -118.39769 | 109 ft | 20 kts | 86° |
| 2026-05-07 22:25 | 33.93913 | -118.39584 | 109 ft | 24 kts | 82° |
| 2026-05-07 22:25 | 33.93936 | -118.39390 | 107 ft | 23 kts | 82° |
| 2026-05-07 22:25 | 33.93957 | -118.39205 | 106 ft | 22 kts | 82° |
| 2026-05-07 22:26 | 33.93978 | -118.39034 | 107 ft | 20 kts | 82° |
| 2026-05-07 22:26 | 33.93993 | -118.38879 | 106 ft | 18 kts | 83° |
| 2026-05-07 22:26 | 33.94007 | -118.38737 | 107 ft | 16 kts | 83° |
| 2026-05-07 22:26 | 33.94019 | -118.38614 | 108 ft | 14 kts | 83° |
| 2026-05-07 22:27 | 33.94030 | -118.38507 | 108 ft | 12 kts | 83° |
| 2026-05-07 22:27 | 33.94039 | -118.38414 | 108 ft | 10 kts | 83° |
| 2026-05-07 22:27 | 33.94047 | -118.38333 | 108 ft | 10 kts | 83° |
| 2026-05-07 22:27 | 33.94058 | -118.38225 | 108 ft | 17 kts | 81° |
| 2026-05-07 22:28 | 33.94077 | -118.38064 | 107 ft | 20 kts | 82° |
| 2026-05-07 22:28 | 33.94077 | -118.38030 | 108 ft | 0 kts | 107° |
| 2026-05-07 22:28 | 33.94075 | -118.38024 | 108 ft | 2 kts | 110° |
| 2026-05-07 22:28 | 33.94069 | -118.38015 | 107 ft | 0 kts | 136° |
| 2026-05-07 22:29 | 33.94060 | -118.38007 | 109 ft | 5 kts | 151° |
| 2026-05-07 22:29 | 33.94011 | -118.37994 | 113 ft | 9 kts | 183° |
| 2026-05-07 22:29 | 33.93982 | -118.38046 | 113 ft | 9 kts | 263° |
| 2026-05-07 22:29 | 33.93969 | -118.38177 | 111 ft | 32 kts | 263° |
| 2026-05-07 22:30 | 33.93918 | -118.38680 | 113 ft | 89 kts | 263° |
| 2026-05-07 22:30 | 33.93821 | -118.39626 | 111 ft | 136 kts | 263° |
| 2026-05-07 22:30 | 33.93687 | -118.40921 | 114 ft | 174 kts | 262° |
| 2026-05-07 22:30 | 33.93523 | -118.42452 | 459 ft | 187 kts | 262° |
| 2026-05-07 22:31 | 33.93351 | -118.43950 | 1320 ft | 181 kts | 262° |
| 2026-05-07 22:31 | 33.93175 | -118.45484 | 1850 ft | 194 kts | 263° |
| 2026-05-07 22:31 | 33.93032 | -118.47215 | 2011 ft | 223 kts | 267° |
| 2026-05-07 22:31 | 33.92909 | -118.49199 | 2146 ft | 251 kts | 265° |
| 2026-05-07 22:32 | 33.92739 | -118.51296 | 2817 ft | 255 kts | 264° |
| 2026-05-07 22:32 | 33.92555 | -118.53428 | 3567 ft | 255 kts | 265° |
| 2026-05-07 22:32 | 33.92376 | -118.55575 | 4279 ft | 257 kts | 265° |
| 2026-05-07 22:32 | 33.92200 | -118.57718 | 5032 ft | 261 kts | 265° |
| 2026-05-07 22:33 | 33.92018 | -118.59921 | 5582 ft | 266 kts | 265° |
| 2026-05-07 22:33 | 33.91832 | -118.62139 | 6297 ft | 265 kts | 265° |
| 2026-05-07 22:33 | 33.91788 | -118.64371 | 6752 ft | 272 kts | 273° |
| 2026-05-07 22:33 | 33.91782 | -118.66651 | 7365 ft | 272 kts | 270° |
| 2026-05-07 22:34 | 33.91753 | -118.68940 | 7888 ft | 277 kts | 271° |
| 2026-05-07 22:34 | 33.91743 | -118.71286 | 8379 ft | 282 kts | 271° |
| 2026-05-07 22:34 | 33.91738 | -118.73665 | 8923 ft | 286 kts | 272° |
| 2026-05-07 22:34 | 33.91730 | -118.76077 | 9468 ft | 290 kts | 271° |
| 2026-05-07 22:35 | 33.91718 | -118.78527 | 9995 ft | 295 kts | 271° |
| 2026-05-07 22:35 | 33.91706 | -118.81051 | 10158 ft | 313 kts | 272° |
| 2026-05-07 22:35 | 33.91721 | -118.83774 | 10194 ft | 336 kts | 275° |
| 2026-05-07 22:35 | 33.91891 | -118.86678 | 10278 ft | 358 kts | 272° |
| 2026-05-07 22:36 | 33.91888 | -118.89685 | 10895 ft | 361 kts | 272° |
| 2026-05-07 22:36 | 33.91941 | -118.92717 | 11510 ft | 364 kts | 273° |
| 2026-05-07 22:36 | 33.92062 | -118.95788 | 12076 ft | 369 kts | 274° |
| 2026-05-07 22:36 | 33.92174 | -118.98853 | 12691 ft | 373 kts | 273° |
| 2026-05-07 22:37 | 33.92584 | -119.01945 | 13289 ft | 375 kts | 292° |
| 2026-05-07 22:37 | 33.93790 | -119.04729 | 13863 ft | 378 kts | 303° |
| 2026-05-07 22:37 | 33.95183 | -119.07436 | 14422 ft | 381 kts | 304° |
| 2026-05-07 22:37 | 33.96622 | -119.10126 | 15001 ft | 384 kts | 304° |
| 2026-05-07 22:38 | 33.98047 | -119.12870 | 15590 ft | 388 kts | 303° |
| 2026-05-07 22:38 | 33.99462 | -119.15656 | 16159 ft | 391 kts | 303° |
| 2026-05-07 22:38 | 34.01002 | -119.18365 | 16734 ft | 393 kts | 315° |
| 2026-05-07 22:38 | 34.03086 | -119.20473 | 17296 ft | 393 kts | 326° |
| 2026-05-07 22:39 | 34.05323 | -119.22399 | 17877 ft | 396 kts | 327° |
| 2026-05-07 22:39 | 34.07602 | -119.24294 | 18445 ft | 400 kts | 327° |
| 2026-05-07 22:39 | 34.09884 | -119.26243 | 18997 ft | 403 kts | 326° |
| 2026-05-07 22:39 | 34.12158 | -119.28227 | 19543 ft | 405 kts | 326° |
| 2026-05-07 22:40 | 34.14460 | -119.30221 | 20088 ft | 408 kts | 326° |
| 2026-05-07 22:40 | 34.16779 | -119.32206 | 20630 ft | 411 kts | 326° |
| 2026-05-07 22:40 | 34.19116 | -119.34214 | 21176 ft | 414 kts | 326° |
| 2026-05-07 22:40 | 34.21469 | -119.36249 | 21712 ft | 416 kts | 326° |
| 2026-05-07 22:41 | 34.23830 | -119.38291 | 22264 ft | 419 kts | 326° |
| 2026-05-07 22:41 | 34.26207 | -119.40285 | 22777 ft | 421 kts | 332° |
| 2026-05-07 22:41 | 34.28852 | -119.41793 | 23307 ft | 423 kts | 338° |
| 2026-05-07 22:41 | 34.31566 | -119.43201 | 23780 ft | 426 kts | 336° |
| 2026-05-07 22:42 | 34.34214 | -119.44834 | 24244 ft | 429 kts | 332° |
| 2026-05-07 22:42 | 34.36763 | -119.46745 | 24665 ft | 433 kts | 327° |
| 2026-05-07 22:42 | 34.39232 | -119.48855 | 25113 ft | 436 kts | 324° |
| 2026-05-07 22:42 | 34.41673 | -119.51066 | 25549 ft | 439 kts | 324° |
| 2026-05-07 22:43 | 34.44029 | -119.53447 | 25969 ft | 444 kts | 317° |
| 2026-05-07 22:43 | 34.46107 | -119.56228 | 26393 ft | 447 kts | 310° |
| 2026-05-07 22:43 | 34.48007 | -119.59231 | 26837 ft | 450 kts | 308° |
| 2026-05-07 22:43 | 34.49880 | -119.62286 | 27271 ft | 453 kts | 308° |
| 2026-05-07 22:44 | 34.51812 | -119.65311 | 27707 ft | 455 kts | 310° |
| 2026-05-07 22:44 | 34.53825 | -119.68291 | 28135 ft | 458 kts | 312° |
| 2026-05-07 22:44 | 34.55892 | -119.71237 | 28584 ft | 460 kts | 312° |
| 2026-05-07 22:44 | 34.57996 | -119.74182 | 29014 ft | 463 kts | 312° |
| 2026-05-07 22:45 | 34.60117 | -119.77147 | 29441 ft | 467 kts | 312° |
| 2026-05-07 22:45 | 34.62241 | -119.80143 | 29903 ft | 469 kts | 312° |
| 2026-05-07 22:45 | 34.64371 | -119.83167 | 30315 ft | 472 kts | 311° |
| 2026-05-07 22:45 | 34.66490 | -119.86195 | 30874 ft | 470 kts | 311° |
| 2026-05-07 22:46 | 34.68615 | -119.89242 | 31208 ft | 474 kts | 311° |
| 2026-05-07 22:46 | 34.70747 | -119.92301 | 31627 ft | 474 kts | 311° |
| 2026-05-07 22:46 | 34.72892 | -119.95375 | 31910 ft | 478 kts | 311° |
| 2026-05-07 22:46 | 34.75052 | -119.98473 | 32185 ft | 482 kts | 311° |
| 2026-05-07 22:47 | 34.77227 | -120.01592 | 32597 ft | 483 kts | 311° |
| 2026-05-07 22:47 | 34.79375 | -120.04673 | 32905 ft | 486 kts | 311° |
| 2026-05-07 22:47 | 34.81569 | -120.07820 | 33163 ft | 489 kts | 311° |
| 2026-05-07 22:47 | 34.83753 | -120.10989 | 33637 ft | 488 kts | 309° |
| 2026-05-07 22:48 | 34.85657 | -120.14408 | 34027 ft | 490 kts | 303° |
| 2026-05-07 22:48 | 34.89149 | -120.21521 | 34083 ft | 485 kts | 303° |
| 2026-05-07 22:49 | 34.93156 | -120.28093 | 34092 ft | 482 kts | 313° |
| 2026-05-07 22:49 | 34.97709 | -120.34079 | 34079 ft | 482 kts | 312° |
| 2026-05-07 22:50 | 35.01919 | -120.40445 | 34086 ft | 481 kts | 310° |
| 2026-05-07 22:50 | 35.06249 | -120.46609 | 34079 ft | 477 kts | 311° |
| 2026-05-07 22:51 | 35.10506 | -120.52848 | 34090 ft | 479 kts | 310° |
| 2026-05-07 22:51 | 35.14771 | -120.59049 | 34085 ft | 479 kts | 311° |
| 2026-05-07 22:52 | 35.19049 | -120.65293 | 34075 ft | 479 kts | 311° |
| 2026-05-07 22:52 | 35.23335 | -120.71565 | 34061 ft | 482 kts | 311° |
| 2026-05-07 22:53 | 35.26943 | -120.76843 | 34066 ft | 483 kts | 311° |
| 2026-05-07 22:53 | 35.31238 | -120.83152 | 34069 ft | 482 kts | 311° |
| 2026-05-07 22:54 | 35.35503 | -120.89417 | 34085 ft | 482 kts | 310° |
| 2026-05-07 22:54 | 35.39829 | -120.95791 | 34091 ft | 485 kts | 310° |
| 2026-05-07 22:55 | 35.44133 | -121.02142 | 34077 ft | 484 kts | 310° |
| 2026-05-07 22:55 | 35.48409 | -121.08450 | 34081 ft | 484 kts | 311° |
| 2026-05-07 22:56 | 35.52836 | -121.14671 | 34081 ft | 485 kts | 311° |
| 2026-05-07 22:56 | 35.57251 | -121.20948 | 34084 ft | 485 kts | 312° |
| 2026-05-07 22:57 | 35.61694 | -121.27198 | 34074 ft | 481 kts | 311° |
| 2026-05-07 22:57 | 35.66033 | -121.33371 | 34068 ft | 477 kts | 311° |
| 2026-05-07 22:58 | 35.70428 | -121.39593 | 34100 ft | 483 kts | 311° |
| 2026-05-07 22:58 | 35.74819 | -121.45852 | 34105 ft | 484 kts | 311° |
| 2026-05-07 22:59 | 35.79185 | -121.52064 | 34101 ft | 481 kts | 311° |
| 2026-05-07 22:59 | 35.83554 | -121.58310 | 34093 ft | 478 kts | 311° |
| 2026-05-07 23:00 | 35.87915 | -121.64542 | 34101 ft | 481 kts | 310° |
| 2026-05-07 23:00 | 35.92271 | -121.70790 | 34098 ft | 480 kts | 311° |
| 2026-05-07 23:01 | 35.96648 | -121.77068 | 34100 ft | 481 kts | 311° |
| 2026-05-07 23:01 | 36.00996 | -121.83328 | 34100 ft | 484 kts | 310° |
| 2026-05-07 23:02 | 36.05358 | -121.89603 | 34107 ft | 478 kts | 310° |
| 2026-05-07 23:02 | 36.09696 | -121.95872 | 34110 ft | 481 kts | 310° |
| 2026-05-07 23:03 | 36.14049 | -122.02167 | 34128 ft | 482 kts | 310° |
| 2026-05-07 23:03 | 36.18396 | -122.08463 | 34131 ft | 480 kts | 310° |
| 2026-05-07 23:04 | 36.22742 | -122.14778 | 34132 ft | 483 kts | 310° |
| 2026-05-07 23:04 | 36.27062 | -122.21057 | 34144 ft | 482 kts | 309° |
| 2026-05-07 23:05 | 36.31407 | -122.27388 | 34142 ft | 481 kts | 310° |
| 2026-05-07 23:05 | 36.35757 | -122.33738 | 34151 ft | 483 kts | 309° |
| 2026-05-07 23:06 | 36.40095 | -122.40090 | 34152 ft | 482 kts | 309° |
| 2026-05-07 23:06 | 36.44125 | -122.46754 | 34151 ft | 482 kts | 302° |
| 2026-05-07 23:07 | 36.47853 | -122.53667 | 34156 ft | 482 kts | 303° |
| 2026-05-07 23:07 | 36.51574 | -122.60616 | 34154 ft | 483 kts | 302° |
| 2026-05-07 23:08 | 36.55275 | -122.67547 | 34160 ft | 481 kts | 302° |
| 2026-05-07 23:08 | 36.58998 | -122.74508 | 34161 ft | 483 kts | 302° |
| 2026-05-07 23:09 | 36.62703 | -122.81470 | 34158 ft | 482 kts | 302° |
| 2026-05-07 23:09 | 36.66413 | -122.88444 | 34157 ft | 483 kts | 302° |
| 2026-05-07 23:10 | 36.70104 | -122.95412 | 34159 ft | 480 kts | 302° |
| 2026-05-07 23:10 | 36.73799 | -123.02382 | 34160 ft | 483 kts | 302° |
| 2026-05-07 23:11 | 36.77486 | -123.09368 | 34162 ft | 480 kts | 302° |
| 2026-05-07 23:11 | 36.81163 | -123.16344 | 34159 ft | 484 kts | 302° |